Time;durP1;ratioP1;P1;durP2;ratioP2;P2;SDS_P1;SDS_P2;PMS_P1;PMS_P2;Temp;Humidity;BMP_temperature;BMP_pressure;BME280_temperature;BME280_humidity;BME280_pressure;Samples;Min_cycle;Max_cycle;Signal;HPM_P1;HPM_P2
2023/10/15 00:00:13;;;;;;;1999.90;999.90;;;7.20;99.90;;;;;;4938317;28;20480;-94
2023/10/15 00:02:41;;;;;;;1999.90;999.90;;;7.30;99.90;;;;;;4938003;28;20130;-94
2023/10/15 00:05:10;;;;;;;1999.90;999.90;;;7.40;99.90;;;;;;4939208;28;20042;-94
2023/10/15 00:07:39;;;;;;;1999.90;999.90;;;7.40;99.90;;;;;;4938469;28;20387;-94
2023/10/15 00:10:10;;;;;;;1999.90;999.90;;;7.00;99.90;;;;;;4954561;28;20049;-94
2023/10/15 00:12:38;;;;;;;1999.90;999.90;;;7.20;99.90;;;;;;4939082;28;20400;-94
2023/10/15 00:15:10;;;;;;;1999.90;999.90;;;7.10;99.90;;;;;;4940765;28;20046;-95
2023/10/15 00:17:37;;;;;;;1999.90;999.90;;;7.00;99.90;;;;;;4938891;28;20050;-94
2023/10/15 00:20:05;;;;;;;1999.90;999.90;;;6.90;99.90;;;;;;4938218;28;20053;-95
2023/10/15 00:22:35;;;;;;;1999.90;999.90;;;6.90;99.90;;;;;;4937493;28;20043;-94
2023/10/15 00:25:07;;;;;;;1999.90;999.90;;;6.90;99.90;;;;;;4938268;28;20048;-94
2023/10/15 00:27:33;;;;;;;1999.90;999.90;;;6.80;99.90;;;;;;4938475;28;20042;-94
2023/10/15 00:29:59;;;;;;;1999.90;999.90;;;6.80;99.90;;;;;;4937337;28;20369;-95
2023/10/15 00:32:25;;;;;;;1999.90;999.90;;;6.80;99.90;;;;;;4938558;28;20050;-94
2023/10/15 00:34:50;;;;;;;1999.90;999.90;;;6.80;99.90;;;;;;4937984;28;20042;-95
2023/10/15 00:37:17;;;;;;;1999.90;999.90;;;6.80;99.90;;;;;;4937721;28;20062;-95
2023/10/15 00:39:42;;;;;;;1999.90;999.90;;;6.80;99.90;;;;;;4938077;28;20566;-95
2023/10/15 00:42:08;;;;;;;1999.90;999.90;;;6.80;99.90;;;;;;4937986;28;20141;-95
2023/10/15 00:44:34;;;;;;;1999.90;999.90;;;6.80;99.90;;;;;;4937943;28;20077;-95
2023/10/15 00:47:03;;;;;;;1999.90;999.90;;;6.80;99.90;;;;;;4937858;28;20057;-93
2023/10/15 00:49:30;;;;;;;1999.90;999.90;;;6.70;99.90;;;;;;4938020;28;20051;-95
2023/10/15 00:51:56;;;;;;;1999.90;999.90;;;6.70;99.90;;;;;;4937723;28;20500;-95
2023/10/15 00:54:23;;;;;;;1999.90;999.90;;;6.70;99.90;;;;;;4938433;28;20085;-95
2023/10/15 00:56:54;;;;;;;1999.90;999.90;;;6.70;99.90;;;;;;4936918;28;20240;-94
2023/10/15 00:59:21;;;;;;;1999.90;999.90;;;6.60;99.90;;;;;;4938493;28;20047;-95
2023/10/15 01:04:25;;;;;;;1999.90;999.90;;;6.80;99.90;;;;;;4954200;28;20055;-94
2023/10/15 01:06:51;;;;;;;1999.90;999.90;;;6.90;99.90;;;;;;4937014;28;20046;-94
2023/10/15 01:09:19;;;;;;;1999.90;999.90;;;7.00;99.90;;;;;;4938625;28;20124;-94
2023/10/15 01:11:56;;;;;;;1999.90;999.90;;;7.00;99.90;;;;;;4936979;28;20124;-95
2023/10/15 01:14:27;;;;;;;1999.90;999.90;;;7.10;99.90;;;;;;4954205;28;20038;-95
2023/10/15 01:16:54;;;;;;;1999.90;999.90;;;7.10;99.90;;;;;;4938191;28;20046;-95
2023/10/15 01:19:21;;;;;;;1999.90;999.90;;;7.20;99.90;;;;;;4936631;28;20130;-95
2023/10/15 01:21:57;;;;;;;1999.90;999.90;;;7.30;99.90;;;;;;4953302;28;20053;-94
2023/10/15 01:24:26;;;;;;;1999.90;999.90;;;7.40;99.90;;;;;;4937717;28;20062;-95
2023/10/15 01:26:59;;;;;;;1999.90;999.90;;;7.60;99.90;;;;;;4934663;29;20051;-96
2023/10/15 01:29:27;;;;;;;1999.90;999.90;;;7.60;99.90;;;;;;4948452;28;20030;-95
2023/10/15 01:31:58;;;;;;;1999.90;999.90;;;7.70;99.90;;;;;;4933990;29;20507;-95
2023/10/15 01:34:25;;;;;;;1999.90;999.90;;;7.80;99.90;;;;;;4937608;28;20121;-95
2023/10/15 01:36:51;;;;;;;1999.90;999.90;;;7.90;99.90;;;;;;4934658;29;20490;-95
2023/10/15 01:39:37;;;;;;;1999.90;999.90;;;7.90;99.90;;;;;;4936963;28;20463;-95
2023/10/15 01:42:06;;;;;;;1999.90;999.90;;;7.90;99.90;;;;;;4937618;28;20197;-95
2023/10/15 01:44:32;;;;;;;1999.90;999.90;;;7.80;99.90;;;;;;4937549;28;20090;-95
2023/10/15 01:49:31;;;;;;;1999.90;999.90;;;7.60;99.90;;;;;;4954031;28;20067;-95
2023/10/15 01:52:05;;;;;;;1999.90;999.90;;;7.50;99.90;;;;;;4936429;28;20320;-94
2023/10/15 01:54:32;;;;;;;1999.90;999.90;;;7.40;99.90;;;;;;4937172;28;20451;-94
2023/10/15 01:57:00;;;;;;;1999.90;999.90;;;7.50;99.90;;;;;;4937050;28;20047;-94
2023/10/15 01:59:27;;;;;;;1999.90;999.90;;;7.40;99.90;;;;;;4937416;28;20050;-94
2023/10/15 02:01:52;;;;;;;1999.90;999.90;;;7.40;99.90;;;;;;4936269;28;20126;-94
2023/10/15 02:06:44;;;;;;;1999.90;999.90;;;7.30;99.90;;;;;;4952400;28;20444;-94
2023/10/15 02:09:13;;;;;;;1999.90;999.90;;;7.20;99.90;;;;;;4952887;28;20046;-94
2023/10/15 02:11:47;;;;;;;1999.90;999.90;;;7.10;99.90;;;;;;4932498;29;20043;-94
2023/10/15 02:14:20;;;;;;;1999.90;999.90;;;6.90;99.90;;;;;;4930795;28;20049;-94
2023/10/15 02:16:49;;;;;;;1999.90;999.90;;;6.70;99.90;;;;;;4937506;28;20134;-93
2023/10/15 02:19:28;;;;;;;1999.90;999.90;;;6.60;99.90;;;;;;4937173;28;20388;-95
2023/10/15 02:21:54;;;;;;;1999.90;999.90;;;6.40;99.90;;;;;;4952937;28;20057;-95
2023/10/15 02:24:20;;;;;;;1999.90;999.90;;;6.30;99.90;;;;;;4937466;28;20034;-94
2023/10/15 02:26:46;;;;;;;1999.90;999.90;;;6.30;99.90;;;;;;4949695;28;20407;-93
2023/10/15 02:29:34;;;;;;;1999.90;999.90;;;6.20;99.90;;;;;;4952720;28;20043;-93
2023/10/15 02:32:08;;;;;;;1999.90;999.90;;;6.20;99.90;;;;;;4936709;28;20050;-93
2023/10/15 02:34:41;;;;;;;1999.90;999.90;;;6.10;99.90;;;;;;4937827;28;20039;-94
2023/10/15 02:37:10;;;;;;;;;;;6.10;99.90;;;;;;4936919;28;20475;-94
2023/10/15 02:39:43;;;;;;;1999.90;999.90;;;6.10;99.90;;;;;;4937112;28;20362;-93
2023/10/15 02:42:10;;;;;;;1999.90;999.90;;;6.10;99.90;;;;;;4936750;28;20085;-93
2023/10/15 02:44:38;;;;;;;1999.90;999.90;;;6.10;99.90;;;;;;4938168;28;20499;-93
2023/10/15 02:47:19;;;;;;;1999.90;999.90;;;6.10;99.90;;;;;;4940285;28;20043;-93
2023/10/15 02:49:52;;;;;;;1999.90;999.90;;;6.10;99.90;;;;;;4939915;28;20105;-93
2023/10/15 02:52:26;;;;;;;;;;;6.20;99.90;;;;;;4940177;28;20133;-94
2023/10/15 02:54:52;;;;;;;1999.90;999.90;;;6.20;99.90;;;;;;4940450;28;19992;-94
2023/10/15 02:57:18;;;;;;;1999.90;999.90;;;6.20;99.90;;;;;;4940068;29;20499;-93
2023/10/15 02:59:55;;;;;;;1999.90;999.90;;;6.30;99.90;;;;;;4954843;28;20046;-94
2023/10/15 03:02:24;;;;;;;1999.90;999.90;;;6.30;99.90;;;;;;4956084;28;20054;-93
2023/10/15 03:04:54;;;;;;;1999.90;999.90;;;6.50;99.90;;;;;;4938826;28;20050;-93
2023/10/15 03:07:30;;;;;;;1999.90;999.90;;;6.50;99.90;;;;;;4939983;28;20078;-95
2023/10/15 03:09:57;;;;;;;1999.90;999.90;;;6.60;99.90;;;;;;4956519;28;20035;-94
2023/10/15 03:12:24;;;;;;;1999.90;999.90;;;6.70;99.90;;;;;;4939511;28;20082;-94
2023/10/15 03:14:51;;;;;;;1999.90;999.90;;;6.80;99.90;;;;;;4939136;28;20047;-94
2023/10/15 03:17:24;;;;;;;1999.90;999.90;;;6.80;99.90;;;;;;4939588;28;20085;-93
2023/10/15 03:19:55;;;;;;;1999.90;999.90;;;6.80;99.90;;;;;;4939683;28;20043;-94
2023/10/15 03:22:24;;;;;;;1999.90;999.90;;;6.80;99.90;;;;;;4939490;28;20078;-95
2023/10/15 03:24:53;;;;;;;1999.90;999.90;;;6.90;99.90;;;;;;4938993;28;20074;-94
2023/10/15 03:27:23;;;;;;;1999.90;999.90;;;6.90;99.90;;;;;;4939477;28;20090;-95
2023/10/15 03:29:51;;;;;;;1999.90;999.90;;;6.90;99.90;;;;;;4939495;28;20049;-94
2023/10/15 03:32:17;;;;;;;1999.90;999.90;;;6.90;99.90;;;;;;4938795;28;20053;-93
2023/10/15 03:34:47;;;;;;;1999.90;999.90;;;7.00;99.90;;;;;;4939995;28;20430;-94
2023/10/15 03:37:15;;;;;;;1999.90;999.90;;;7.00;99.90;;;;;;4939142;28;20067;-95
2023/10/15 03:44:44;;;;;;;1999.90;999.90;;;7.00;99.90;;;;;;4955431;28;20108;-95
2023/10/15 03:47:11;;;;;;;1999.90;999.90;;;7.00;99.90;;;;;;4940238;28;20042;-95
2023/10/15 03:49:37;;;;;;;1999.90;999.90;;;7.00;99.90;;;;;;4940288;28;20538;-94
2023/10/15 03:52:08;;;;;;;1999.90;999.90;;;6.90;99.90;;;;;;4938994;28;20031;-95
2023/10/15 03:54:37;;;;;;;1999.90;999.90;;;6.90;99.90;;;;;;4938683;28;20043;-95
2023/10/15 03:57:06;;;;;;;1999.90;999.90;;;6.80;99.90;;;;;;4938824;28;20130;-93
2023/10/15 03:59:43;;;;;;;1999.90;999.90;;;6.80;99.90;;;;;;4938973;28;20142;-95
2023/10/15 04:02:22;;;;;;;1999.90;999.90;;;6.80;99.90;;;;;;4954907;28;20057;-94
2023/10/15 04:04:56;;;;;;;1999.90;999.90;;;6.80;99.90;;;;;;4938502;28;20495;-95
2023/10/15 04:07:23;;;;;;;1999.90;999.90;;;6.80;99.90;;;;;;4938145;28;20066;-94
2023/10/15 04:09:50;;;;;;;1999.90;999.90;;;6.80;99.90;;;;;;4938734;28;20105;-95
2023/10/15 04:12:18;;;;;;;1999.90;999.90;;;6.80;99.90;;;;;;4939294;28;20050;-94
2023/10/15 04:14:46;;;;;;;1999.90;999.90;;;6.90;99.90;;;;;;4937971;28;20146;-94
2023/10/15 04:17:20;;;;;;;1999.90;999.90;;;6.90;99.90;;;;;;4939151;28;20751;-95
2023/10/15 04:19:54;;;;;;;1999.90;999.90;;;6.90;99.90;;;;;;4938519;28;20093;-94
2023/10/15 04:22:22;;;;;;;1999.90;999.90;;;6.90;99.90;;;;;;4937728;28;20530;-94
2023/10/15 04:24:50;;;;;;;1999.90;999.90;;;6.90;99.90;;;;;;4926055;28;20072;-94
2023/10/15 04:27:17;;;;;;;1999.90;999.90;;;6.90;99.90;;;;;;4938937;28;20098;-95
2023/10/15 04:29:49;;;;;;;1999.90;999.90;;;6.90;99.90;;;;;;4937320;28;20506;-95
2023/10/15 04:32:24;;;;;;;1999.90;999.90;;;6.80;99.90;;;;;;4938055;28;20144;-94
2023/10/15 04:34:51;;;;;;;1999.90;999.90;;;6.80;99.90;;;;;;4936902;28;20039;-94
2023/10/15 04:37:20;;;;;;;1999.90;999.90;;;6.70;99.90;;;;;;4938163;28;20109;-94
2023/10/15 04:39:52;;;;;;;1999.90;999.90;;;6.60;99.90;;;;;;4938318;28;20085;-94
2023/10/15 04:42:29;;;;;;;1999.90;999.90;;;6.50;99.90;;;;;;4938440;28;20042;-94
2023/10/15 04:44:58;;;;;;;1999.90;999.90;;;6.60;99.90;;;;;;4935332;29;20470;-95
2023/10/15 04:47:30;;;;;;;1999.90;999.90;;;6.60;99.90;;;;;;4953868;28;20044;-95
2023/10/15 04:49:57;;;;;;;1999.90;999.90;;;6.50;99.90;;;;;;4938271;28;20061;-95
2023/10/15 04:52:24;;;;;;;1999.90;999.90;;;6.50;99.90;;;;;;4937741;28;20105;-96
2023/10/15 04:54:55;;;;;;;1999.90;999.90;;;6.50;99.90;;;;;;4938477;28;20042;-96
2023/10/15 04:57:21;;;;;;;1999.90;999.90;;;6.40;99.90;;;;;;4926110;28;20106;-96
2023/10/15 04:59:47;;;;;;;1999.90;999.90;;;6.30;99.90;;;;;;4937950;28;20483;-95
2023/10/15 05:02:13;;;;;;;1999.90;999.90;;;6.30;99.90;;;;;;4938402;28;20058;-95
2023/10/15 05:04:39;;;;;;;1999.90;999.90;;;6.40;99.90;;;;;;4937020;28;20047;-95
2023/10/15 05:07:05;;;;;;;1999.90;999.90;;;6.40;99.90;;;;;;4937818;28;20035;-95
2023/10/15 05:09:31;;;;;;;1999.90;999.90;;;6.40;99.90;;;;;;4937807;28;20047;-95
2023/10/15 05:11:58;;;;;;;1999.90;999.90;;;6.50;99.90;;;;;;4937169;28;20121;-95
2023/10/15 05:14:24;;;;;;;1999.90;999.90;;;6.50;99.90;;;;;;4938200;28;20047;-94
2023/10/15 05:16:49;;;;;;;1999.90;999.90;;;6.50;99.90;;;;;;4936842;28;20092;-93
2023/10/15 05:19:17;;;;;;;1999.90;999.90;;;6.50;99.90;;;;;;4937614;28;20066;-96
2023/10/15 05:21:46;;;;;;;1999.90;999.90;;;6.50;99.90;;;;;;4960547;28;20556;-95
2023/10/15 05:24:18;;;;;;;1999.90;999.90;;;6.50;99.90;;;;;;4937077;28;20057;-94
2023/10/15 05:26:48;;;;;;;1999.90;999.90;;;6.40;99.90;;;;;;4938025;28;20494;-95
2023/10/15 05:29:16;;;;;;;1999.90;999.90;;;6.30;99.90;;;;;;4937737;28;20072;-95
2023/10/15 05:31:43;;;;;;;1999.90;999.90;;;6.20;99.90;;;;;;4936924;28;20061;-94
2023/10/15 05:34:09;;;;;;;1999.90;999.90;;;6.20;99.90;;;;;;4937997;28;20053;-94
2023/10/15 05:36:37;;;;;;;1999.90;999.90;;;6.20;99.90;;;;;;4937110;28;20042;-94
2023/10/15 05:39:04;;;;;;;1999.90;999.90;;;6.20;99.90;;;;;;4937219;28;20133;-95
2023/10/15 05:41:38;;;;;;;1999.90;999.90;;;6.20;99.90;;;;;;4937318;28;20035;-94
2023/10/15 05:44:04;;;;;;;1999.90;999.90;;;6.30;99.90;;;;;;4937745;28;20026;-94
2023/10/15 05:46:30;;;;;;;1999.90;999.90;;;6.30;99.90;;;;;;4943348;28;20101;-95
2023/10/15 05:48:56;;;;;;;1999.90;999.90;;;6.40;99.90;;;;;;4937021;28;20047;-95
2023/10/15 05:51:24;;;;;;;1999.90;999.90;;;6.40;99.90;;;;;;4937957;28;20047;-95
2023/10/15 05:53:52;;;;;;;1999.90;999.90;;;6.40;99.90;;;;;;4936005;28;20126;-92
2023/10/15 05:56:18;;;;;;;1999.90;999.90;;;6.50;99.90;;;;;;4937466;28;20105;-95
2023/10/15 05:58:44;;;;;;;1999.90;999.90;;;6.50;99.90;;;;;;4937765;28;20097;-96
2023/10/15 06:01:10;;;;;;;1999.90;999.90;;;6.50;99.90;;;;;;4938122;28;20039;-95
2023/10/15 06:03:37;;;;;;;1999.90;999.90;;;6.60;99.90;;;;;;4937653;28;20101;-95
2023/10/15 06:06:05;;;;;;;1999.90;999.90;;;6.60;99.90;;;;;;4937607;28;20061;-94
2023/10/15 06:08:30;;;;;;;1999.90;999.90;;;6.60;99.90;;;;;;4936733;28;20071;-94
2023/10/15 06:10:57;;;;;;;1999.90;999.90;;;6.60;99.90;;;;;;4938502;28;20050;-94
2023/10/15 06:13:23;;;;;;;1999.90;999.90;;;6.60;99.90;;;;;;4936471;28;20039;-95
2023/10/15 06:15:51;;;;;;;1999.90;999.90;;;6.60;99.90;;;;;;4936443;28;20526;-94
2023/10/15 06:18:19;;;;;;;1999.90;999.90;;;6.60;99.90;;;;;;4937228;28;20495;-94
2023/10/15 06:20:47;;;;;;;1999.90;999.90;;;6.60;99.90;;;;;;4940012;28;20074;-93
2023/10/15 06:23:20;;;;;;;1999.90;999.90;;;6.60;99.90;;;;;;4952399;28;20054;-94
2023/10/15 06:25:56;;;;;;;;;;;;;;;;;;;;;
2023/10/15 06:28:22;;;;;;;1999.90;999.90;;;6.60;99.90;;;;;;4955373;28;20380;-95
2023/10/15 06:30:48;;;;;;;1999.90;999.90;;;6.50;99.90;;;;;;4971864;28;21250;-95
2023/10/15 06:33:16;;;;;;;1999.90;999.90;;;6.50;99.90;;;;;;4941626;28;20046;-94
2023/10/15 06:35:43;;;;;;;1999.90;999.90;;;6.60;99.90;;;;;;4941198;28;20054;-95
2023/10/15 06:38:13;;;;;;;1999.90;999.90;;;6.60;99.90;;;;;;4938561;29;20138;-93
2023/10/15 06:40:39;;;;;;;1999.90;999.90;;;6.60;99.90;;;;;;4954132;28;20047;-94
2023/10/15 06:43:14;;;;;;;1999.90;999.90;;;6.60;99.90;;;;;;4934077;28;20043;-94
2023/10/15 06:45:41;;;;;;;1999.90;999.90;;;6.60;99.90;;;;;;4944673;28;20078;-96
2023/10/15 06:48:07;;;;;;;1999.90;999.90;;;6.60;99.90;;;;;;4940960;28;20483;-96
2023/10/15 06:50:43;;;;;;;;;;;;;;;;;;;;;
2023/10/15 06:53:32;;;;;;;1999.90;999.90;;;6.60;99.90;;;;;;4973485;28;20046;-96
2023/10/15 06:56:02;;;;;;;1999.90;999.90;;;6.50;99.90;;;;;;4941952;28;20057;-96
2023/10/15 06:58:37;;;;;;;1999.90;999.90;;;6.20;99.90;;;;;;4925389;28;20050;-95
2023/10/15 07:01:07;;;;;;;1999.90;999.90;;;6.50;99.90;;;;;;4940871;28;20146;-95
2023/10/15 07:03:51;;;;;;;1999.90;999.90;;;6.50;99.90;;;;;;4935337;28;20042;-95
2023/10/15 07:06:19;;;;;;;1999.90;999.90;;;6.60;99.90;;;;;;4940837;28;20045;-96
2023/10/15 07:08:49;;;;;;;1999.90;999.90;;;6.70;99.90;;;;;;4940259;28;20134;-96
2023/10/15 07:11:15;;;;;;;1999.90;999.90;;;6.80;99.90;;;;;;4934984;28;20050;-96
2023/10/15 07:13:41;;;;;;;1999.90;999.90;;;6.80;99.90;;;;;;4940860;28;20051;-96
2023/10/15 07:16:08;;;;;;;1999.90;999.90;;;6.80;99.90;;;;;;4940298;28;20062;-96
2023/10/15 07:18:40;;;;;;;1999.90;999.90;;;6.90;99.90;;;;;;4942689;28;20046;-96
2023/10/15 07:21:08;;;;;;;1999.90;999.90;;;6.50;99.90;;;;;;4955616;28;20043;-96
2023/10/15 07:23:38;;;;;;;1999.90;999.90;;;6.90;99.90;;;;;;4959716;28;20042;-96
2023/10/15 07:26:15;;;;;;;1999.90;999.90;;;7.00;99.90;;;;;;4943989;28;20046;-96
2023/10/15 07:28:41;;;;;;;1999.90;999.90;;;7.00;99.90;;;;;;4941657;28;20031;-96
2023/10/15 07:31:11;;;;;;;1999.90;999.90;;;7.00;99.90;;;;;;4940601;28;20454;-96
2023/10/15 07:33:37;;;;;;;1999.90;999.90;;;7.00;99.90;;;;;;4942174;28;20047;-96
2023/10/15 07:36:05;;;;;;;1999.90;999.90;;;7.10;99.90;;;;;;4941424;28;20047;-95
2023/10/15 07:38:36;;;;;;;1999.90;999.90;;;7.10;99.90;;;;;;4938849;28;20035;-96
2023/10/15 07:41:04;;;;;;;1999.90;999.90;;;7.20;99.90;;;;;;4940632;28;20485;-95
2023/10/15 07:43:40;;;;;;;;;;;;;;;;;;;;;
2023/10/15 07:50:40;;;;;;;1999.90;999.90;;;7.20;99.90;;;;;;4897558;28;20081;-96
2023/10/15 07:53:03;;;;;;;1999.90;999.90;;;7.20;99.90;;;;;;4957008;29;20065;-96
2023/10/15 08:29:41;;;;;;;1999.90;999.90;;;7.50;99.90;;;;;;4935849;28;20355;-91
2023/10/15 08:35:32;;;;;;;1999.90;999.90;;;8.10;99.90;;;;;;4855457;29;20104;-93
2023/10/15 08:41:18;;;;;;;1908.70;999.90;;;8.60;99.90;;;;;;4897207;29;20056;-93
2023/10/15 08:43:51;;;;;;;1999.90;999.90;;;8.40;99.90;;;;;;4919123;29;20067;-92
2023/10/15 08:47:15;;;;;;;1999.90;999.90;;;8.10;99.90;;;;;;4924014;29;20075;-96
2023/10/15 08:50:24;;;;;;;1999.90;999.90;;;8.10;99.90;;;;;;4895880;29;20055;-93
2023/10/15 08:53:32;;;;;;;;;;;;;;;;;;;;;
2023/10/15 08:57:01;;;;;;;;;;;;;;;;;;;;;
2023/10/15 09:12:13;;;;;;;;;;;;;;;;;;;;;
2023/10/15 09:40:44;;;;;;;1999.90;999.90;;;8.40;99.90;;;;;;4861237;29;20051;-95
2023/10/15 09:44:37;;;;;;;;;;;;;;;;;;;;;
2023/10/15 14:55:06;;;;;;;913.25;823.78;;;11.00;99.90;;;;;;6056891;23;20082;31
2023/10/15 15:28:40;;;;;;;;;;;;;;;;;;;;;
2023/10/15 15:32:01;;;;;;;1999.90;999.90;;;10.20;99.90;;;;;;4928418;29;20488;-96
2023/10/15 15:34:45;;;;;;;;;;;;;;;;;;;;;
2023/10/15 15:37:48;;;;;;;;;;;;;;;;;;;;;
2023/10/15 15:41:25;;;;;;;;;;;;;;;;;;;;;
2023/10/15 15:45:04;;;;;;;1999.90;999.90;;;9.90;99.90;;;;;;4906640;29;20060;-95
2023/10/15 15:47:41;;;;;;;;;;;;;;;;;;;;;
2023/10/15 15:50:15;;;;;;;1999.90;999.90;;;9.60;99.90;;;;;;4864535;29;20070;-95
2023/10/15 15:53:38;;;;;;;1999.90;999.90;;;9.60;99.90;;;;;;4902145;29;20079;-95
2023/10/15 15:56:32;;;;;;;1999.90;999.90;;;9.60;99.90;;;;;;4843072;29;20047;-95
2023/10/15 17:27:14;;;;;;;1999.90;999.90;;;8.00;99.90;;;;;;4987414;28;20042;-95
